createdAt,value
2022-09-25T00:00:10.661Z,308
2022-09-25T00:02:16.209Z,308
2022-09-25T00:04:21.733Z,308
2022-09-25T00:06:27.320Z,308
2022-09-25T00:08:32.644Z,308
2022-09-25T00:10:38.090Z,308
2022-09-25T00:12:44.041Z,308
2022-09-25T00:14:55.808Z,308
2022-09-25T00:17:01.659Z,308
2022-09-25T00:19:07.250Z,308
2022-09-25T00:21:12.746Z,308
2022-09-25T00:23:18.054Z,308
2022-09-25T00:25:23.898Z,308
2022-09-25T00:27:29.036Z,308
2022-09-25T00:29:34.334Z,308
2022-09-25T00:31:39.502Z,308
2022-09-25T00:33:59.443Z,308
2022-09-25T00:36:04.783Z,308
2022-09-25T00:38:11.016Z,308
2022-09-25T00:40:16.561Z,308
2022-09-25T00:42:22.080Z,308
2022-09-25T00:44:27.531Z,298
2022-09-25T00:46:33.111Z,298
2022-09-25T00:48:38.493Z,298
2022-09-25T00:50:43.773Z,298
2022-09-25T00:52:49.437Z,298
2022-09-25T00:54:54.592Z,290
2022-09-25T00:57:00.017Z,281
2022-09-25T00:59:05.125Z,294
2022-09-25T01:01:10.851Z,297
2022-09-25T01:03:16.603Z,296
2022-09-25T01:05:21.769Z,294
2022-09-25T01:07:28.425Z,294
2022-09-25T01:09:33.803Z,297
2022-09-25T01:11:41.669Z,297
2022-09-25T01:13:46.946Z,300
2022-09-25T01:15:52.186Z,300
2022-09-25T01:17:57.787Z,298
2022-09-25T01:20:03.336Z,281
2022-09-25T01:22:11.857Z,290
2022-09-25T01:24:17.087Z,298
2022-09-25T01:26:22.337Z,298
2022-09-25T01:28:27.795Z,297
2022-09-25T01:30:35.586Z,289
2022-09-25T01:32:41.299Z,289
2022-09-25T01:34:48.961Z,296
2022-09-25T01:36:54.138Z,286
2022-09-25T01:38:59.469Z,292
2022-09-25T01:41:04.903Z,283
2022-09-25T01:43:10.566Z,289
2022-09-25T01:45:16.151Z,291
2022-09-25T01:47:21.435Z,292
2022-09-25T01:49:26.811Z,296
2022-09-25T01:51:31.954Z,295
2022-09-25T01:53:37.517Z,304
2022-09-25T01:55:57.931Z,301
2022-09-25T01:58:03.338Z,303
2022-09-25T02:00:08.959Z,302
2022-09-25T02:02:14.565Z,297
2022-09-25T02:04:19.952Z,300
2022-09-25T02:06:25.103Z,283
2022-09-25T02:08:31.574Z,289
2022-09-25T02:10:38.207Z,302
2022-09-25T02:12:43.652Z,310
2022-09-25T02:14:48.737Z,309
2022-09-25T02:16:54.401Z,309
2022-09-25T02:18:59.901Z,307
2022-09-25T02:21:07.422Z,307
2022-09-25T02:23:13.021Z,307
2022-09-25T02:25:18.309Z,307
2022-09-25T02:27:23.534Z,308
2022-09-25T02:29:28.687Z,307
2022-09-25T02:31:34.464Z,307
2022-09-25T02:33:40.788Z,307
2022-09-25T02:35:46.139Z,307
2022-09-25T02:37:51.350Z,307
2022-09-25T02:39:56.794Z,307
2022-09-25T02:42:01.963Z,307
2022-09-25T02:44:07.373Z,307
2022-09-25T02:46:14.803Z,307
2022-09-25T02:48:20.294Z,307
2022-09-25T02:50:25.586Z,307
2022-09-25T02:52:31.078Z,307
2022-09-25T02:54:36.444Z,307
2022-09-25T02:56:41.696Z,307
2022-09-25T02:58:47.277Z,307
2022-09-25T03:00:52.616Z,307
2022-09-25T03:02:58.241Z,307
2022-09-25T03:05:04.056Z,307
2022-09-25T03:07:09.397Z,307
2022-09-25T03:09:15.965Z,307
2022-09-25T03:11:21.345Z,307
2022-09-25T03:13:26.673Z,307
2022-09-25T03:15:31.756Z,307
2022-09-25T03:17:37.146Z,307
2022-09-25T03:19:42.252Z,307
2022-09-25T03:21:47.535Z,307
2022-09-25T03:23:53.070Z,307
2022-09-25T03:25:58.134Z,307
2022-09-25T03:28:03.328Z,307
2022-09-25T03:30:08.523Z,307
2022-09-25T03:32:13.755Z,307
2022-09-25T03:34:18.907Z,307
2022-09-25T03:36:24.449Z,307
2022-09-25T03:38:29.719Z,307
2022-09-25T03:40:35.736Z,307
2022-09-25T03:42:41.463Z,307
2022-09-25T03:44:46.877Z,304
2022-09-25T03:46:52.442Z,304
2022-09-25T03:48:57.706Z,304
2022-09-25T03:51:03.039Z,303
2022-09-25T03:53:08.457Z,303
2022-09-25T03:55:13.749Z,303
2022-09-25T03:57:19.105Z,303
2022-09-25T03:59:24.435Z,303
2022-09-25T04:01:30.345Z,303
2022-09-25T04:03:36.110Z,303
2022-09-25T04:05:41.306Z,294
2022-09-25T04:07:46.496Z,294
2022-09-25T04:09:51.739Z,294
2022-09-25T04:11:57.561Z,288
2022-09-25T04:14:03.926Z,288
2022-09-25T04:16:10.058Z,289
2022-09-25T04:18:15.477Z,289
2022-09-25T04:20:20.887Z,289
2022-09-25T04:22:26.331Z,289
2022-09-25T04:24:31.570Z,289
2022-09-25T04:26:37.085Z,289
2022-09-25T04:28:42.258Z,289
2022-09-25T04:30:47.837Z,283
2022-09-25T04:32:53.199Z,288
2022-09-25T04:34:58.347Z,286
2022-09-25T04:37:03.393Z,291
2022-09-25T04:39:08.872Z,290
2022-09-25T04:41:14.493Z,290
2022-09-25T04:43:20.057Z,290
2022-09-25T04:45:25.874Z,290
2022-09-25T04:47:31.192Z,293
2022-09-25T04:49:36.699Z,291
2022-09-25T04:51:42.171Z,291
2022-09-25T04:53:47.369Z,291
2022-09-25T04:55:52.511Z,294
2022-09-25T04:58:01.748Z,294
2022-09-25T05:00:07.809Z,294
2022-09-25T05:02:13.406Z,297
2022-09-25T05:04:19.121Z,294
2022-09-25T05:06:24.645Z,298
2022-09-25T05:08:30.311Z,298
2022-09-25T05:10:35.764Z,298
2022-09-25T05:12:40.966Z,294
2022-09-25T05:14:46.248Z,298
2022-09-25T05:16:52.198Z,295
2022-09-25T05:18:57.810Z,294
2022-09-25T05:21:03.079Z,295
2022-09-25T05:23:08.364Z,298
2022-09-25T05:25:13.926Z,298
2022-09-25T05:27:19.431Z,298
2022-09-25T05:29:24.798Z,298
2022-09-25T05:31:30.918Z,296
2022-09-25T05:33:37.131Z,298
2022-09-25T05:35:43.248Z,296
2022-09-25T05:37:48.705Z,294
2022-09-25T05:39:54.091Z,295
2022-09-25T05:42:00.175Z,295
2022-09-25T05:44:06.048Z,298
2022-09-25T05:46:12.268Z,298
2022-09-25T05:48:17.780Z,296
2022-09-25T05:50:23.205Z,298
2022-09-25T05:52:28.632Z,295
2022-09-25T05:54:34.953Z,294
2022-09-25T05:56:41.063Z,298
2022-09-25T05:58:47.145Z,294
2022-09-25T06:00:53.538Z,294
2022-09-25T06:02:59.787Z,298
2022-09-25T06:05:06.601Z,298
2022-09-25T06:07:12.247Z,295
2022-09-25T06:09:18.252Z,296
2022-09-25T06:11:24.619Z,295
2022-09-25T06:13:30.968Z,294
2022-09-25T06:15:37.655Z,296
2022-09-25T06:17:44.416Z,293
2022-09-25T06:19:49.916Z,298
2022-09-25T06:21:56.336Z,298
2022-09-25T06:24:02.499Z,296
2022-09-25T06:26:08.898Z,296
2022-09-25T06:28:14.937Z,298
2022-09-25T06:30:20.962Z,296
2022-09-25T06:32:28.230Z,295
2022-09-25T06:34:34.015Z,298
2022-09-25T06:36:41.360Z,298
2022-09-25T06:38:47.766Z,298
2022-09-25T06:40:58.711Z,294
2022-09-25T06:43:07.863Z,294
2022-09-25T06:45:16.649Z,298
2022-09-25T06:47:29.008Z,298
2022-09-25T06:49:35.569Z,298
2022-09-25T06:51:42.072Z,298
2022-09-25T06:53:48.369Z,294
2022-09-25T06:55:54.459Z,296
2022-09-25T06:58:00.419Z,295
2022-09-25T07:00:06.906Z,296
2022-09-25T07:02:15.323Z,296
2022-09-25T07:04:23.511Z,298
2022-09-25T07:06:31.463Z,294
2022-09-25T07:08:38.172Z,296
2022-09-25T07:10:48.736Z,296
2022-09-25T07:12:55.243Z,298
2022-09-25T07:15:04.501Z,296
2022-09-25T07:17:12.589Z,298
2022-09-25T07:19:32.589Z,295
2022-09-25T07:21:39.092Z,296
2022-09-25T07:23:45.395Z,296
2022-09-25T07:25:54.781Z,296
2022-09-25T07:28:05.185Z,296
2022-09-25T07:30:15.725Z,296
2022-09-25T07:32:22.569Z,293
2022-09-25T07:34:32.159Z,293
2022-09-25T07:36:43.066Z,293
2022-09-25T07:38:49.909Z,294
2022-09-25T07:40:56.619Z,293
2022-09-25T07:43:03.481Z,293
2022-09-25T07:45:10.074Z,293
2022-09-25T07:47:18.034Z,294
2022-09-25T07:49:25.246Z,298
2022-09-25T07:51:31.556Z,293
2022-09-25T07:53:39.511Z,295
2022-09-25T07:55:46.241Z,298
2022-09-25T07:57:52.511Z,296
2022-09-25T07:59:58.948Z,294
2022-09-25T08:02:08.511Z,294
2022-09-25T08:04:25.256Z,293
2022-09-25T08:06:31.890Z,293
2022-09-25T08:08:38.876Z,293
2022-09-25T08:10:45.464Z,293
2022-09-25T08:12:52.984Z,283
2022-09-25T08:15:01.389Z,294
2022-09-25T08:17:08.207Z,294
2022-09-25T08:19:15.629Z,295
2022-09-25T08:21:22.397Z,290
2022-09-25T08:23:29.509Z,291
2022-09-25T08:25:36.204Z,291
2022-09-25T08:27:43.170Z,291
2022-09-25T08:29:49.899Z,291
2022-09-25T08:31:56.649Z,296
2022-09-25T08:34:43.888Z,291
2022-09-25T08:36:53.611Z,290
2022-09-25T08:39:00.299Z,290
2022-09-25T08:41:18.638Z,289
2022-09-25T08:43:49.132Z,288
2022-09-25T08:46:33.625Z,288
2022-09-25T08:49:06.509Z,289
2022-09-25T08:51:16.056Z,289
2022-09-25T08:53:30.359Z,288
2022-09-25T08:55:43.995Z,295
2022-09-25T08:58:04.254Z,296
2022-09-25T09:00:34.182Z,296
2022-09-25T09:03:11.457Z,297
2022-09-25T09:05:40.036Z,296
2022-09-25T09:08:06.062Z,290
2022-09-25T09:10:33.480Z,291
2022-09-25T09:17:58.686Z,296
2022-09-25T09:20:24.271Z,290
2022-09-25T09:22:43.447Z,291
2022-09-25T09:25:06.137Z,296
2022-09-25T09:27:19.520Z,296
2022-09-25T09:29:26.035Z,300
2022-09-25T09:31:32.812Z,296
2022-09-25T09:33:39.913Z,296
2022-09-25T09:38:39.743Z,294
2022-09-25T10:03:32.505Z,294
2022-09-25T10:09:46.004Z,294
2022-09-25T10:12:21.667Z,294
2022-09-25T10:18:19.830Z,294
2022-09-25T10:21:23.091Z,294
2022-09-25T10:33:47.253Z,294
2022-09-25T10:39:46.154Z,294
2022-09-25T10:41:54.905Z,294
2022-09-25T10:44:01.209Z,294
2022-09-25T10:46:08.202Z,294
2022-09-25T10:48:16.571Z,294
2022-09-25T10:50:30.318Z,294
2022-09-25T10:52:39.311Z,294
2022-09-25T10:54:48.759Z,294
2022-09-25T10:56:55.650Z,296
2022-09-25T10:59:02.691Z,297
2022-09-25T11:01:09.698Z,297
2022-09-25T11:03:20.392Z,290
2022-09-25T11:05:27.452Z,300
2022-09-25T11:07:33.938Z,296
2022-09-25T11:09:42.473Z,290
2022-09-25T11:11:51.421Z,290
2022-09-25T11:13:58.229Z,291
2022-09-25T11:16:06.780Z,298
2022-09-25T11:18:14.116Z,297
2022-09-25T11:20:22.316Z,297
2022-09-25T11:22:29.128Z,297
2022-09-25T11:24:36.492Z,297
2022-09-25T11:26:43.086Z,297
2022-09-25T11:28:51.646Z,298
2022-09-25T11:31:18.610Z,298
2022-09-25T11:33:25.556Z,296
2022-09-25T11:35:37.814Z,296
2022-09-25T11:37:44.821Z,296
2022-09-25T11:39:51.568Z,296
2022-09-25T11:42:01.120Z,296
2022-09-25T11:44:07.942Z,296
2022-09-25T11:46:15.902Z,296
2022-09-25T11:48:43.821Z,296
2022-09-25T11:50:50.406Z,296
2022-09-25T11:53:09.280Z,296
2022-09-25T11:55:15.954Z,294
2022-09-25T11:57:23.519Z,294
2022-09-25T11:59:29.904Z,293
2022-09-25T12:01:36.942Z,296
2022-09-25T12:03:43.383Z,293
2022-09-25T12:05:50.610Z,293
2022-09-25T13:07:13.869Z,298
2022-09-25T13:13:37.581Z,298
2022-09-25T13:16:15.773Z,298
2022-09-25T13:18:59.707Z,298
2022-09-25T13:27:47.559Z,302
2022-09-25T13:30:00.835Z,303
2022-09-25T13:35:17.316Z,303
2022-09-25T13:37:34.370Z,303
2022-09-25T13:39:52.036Z,298
2022-09-25T13:42:09.264Z,298
2022-09-25T13:44:17.201Z,303
2022-09-25T13:46:23.907Z,303
2022-09-25T13:48:33.748Z,301
2022-09-25T13:50:45.078Z,300
2022-09-25T13:53:02.299Z,298
2022-09-25T13:58:14.081Z,300
2022-09-25T14:00:23.437Z,300
2022-09-25T14:02:35.026Z,300
2022-09-25T14:04:48.535Z,297
2022-09-25T14:07:00.114Z,302
2022-09-25T14:09:14.507Z,303
2022-09-25T14:11:20.826Z,302
2022-09-25T14:13:29.192Z,302
2022-09-25T14:15:35.336Z,302
2022-09-25T14:17:44.750Z,302
2022-09-25T14:19:55.197Z,302
2022-09-25T14:22:02.033Z,298
2022-09-25T14:24:10.791Z,291
2022-09-25T14:26:17.527Z,303
2022-09-25T14:28:24.236Z,302
2022-09-25T14:30:33.603Z,302
2022-09-25T14:32:58.252Z,302
2022-09-25T14:35:08.399Z,302
2022-09-25T14:37:15.025Z,302
2022-09-25T14:39:21.650Z,302
2022-09-25T14:41:28.192Z,302
2022-09-25T14:43:35.980Z,302
2022-09-25T14:45:57.458Z,302
2022-09-25T14:48:06.111Z,302
2022-09-25T14:50:18.323Z,302
2022-09-25T14:52:26.973Z,302
2022-09-25T14:54:35.060Z,302
2022-09-25T14:56:44.936Z,302
2022-09-25T14:58:54.664Z,302
2022-09-25T15:01:23.626Z,302
2022-09-25T15:10:07.376Z,302
2022-09-25T15:15:55.924Z,302
2022-09-25T15:18:18.626Z,302
2022-09-25T15:20:32.712Z,302
2022-09-25T15:22:53.907Z,302
2022-09-25T15:25:21.615Z,302
2022-09-25T15:27:31.939Z,302
2022-09-25T15:29:38.851Z,302
2022-09-25T15:31:51.112Z,302
2022-09-25T15:34:14.888Z,302
2022-09-25T15:36:26.309Z,302
2022-09-25T15:38:34.653Z,302
2022-09-25T15:40:43.147Z,302
2022-09-25T15:42:55.869Z,302
2022-09-25T15:45:08.070Z,302
2022-09-25T15:47:21.595Z,302
2022-09-25T15:49:28.511Z,302
2022-09-25T15:51:37.872Z,302
2022-09-25T15:53:44.881Z,302
2022-09-25T15:55:51.852Z,302
2022-09-25T15:57:58.233Z,302
2022-09-25T16:00:05.291Z,302
2022-09-25T16:02:16.352Z,302
2022-09-25T16:04:23.235Z,302
2022-09-25T16:06:30.289Z,302
2022-09-25T16:08:41.920Z,302
2022-09-25T16:10:55.667Z,302
2022-09-25T16:13:08.550Z,302
2022-09-25T16:15:21.829Z,302
2022-09-25T16:17:34.846Z,302
2022-09-25T16:19:43.291Z,302
2022-09-25T16:21:49.945Z,302
2022-09-25T16:23:59.314Z,302
2022-09-25T16:26:06.345Z,302
2022-09-25T16:28:13.534Z,302
2022-09-25T16:30:21.314Z,302
2022-09-25T16:32:27.577Z,302
2022-09-25T16:34:34.152Z,302
2022-09-25T16:36:44.537Z,302
2022-09-25T16:38:51.110Z,302
2022-09-25T16:40:58.388Z,302
2022-09-25T16:43:05.196Z,302
2022-09-25T16:45:12.935Z,302
2022-09-25T16:47:20.357Z,302
2022-09-25T16:49:26.903Z,302
2022-09-25T16:51:35.611Z,302
2022-09-25T16:53:42.159Z,302
2022-09-25T16:55:50.501Z,302
2022-09-25T16:57:56.866Z,302
2022-09-25T17:00:03.201Z,302
2022-09-25T17:02:11.878Z,302
2022-09-25T17:04:18.677Z,302
2022-09-25T17:06:26.473Z,302
2022-09-25T17:08:33.905Z,302
2022-09-25T17:10:40.746Z,302
2022-09-25T17:12:55.779Z,302
2022-09-25T17:15:03.272Z,302
2022-09-25T17:17:09.937Z,302
2022-09-25T17:19:17.711Z,302
2022-09-25T17:21:26.415Z,302
2022-09-25T17:23:32.823Z,300
2022-09-25T17:25:39.846Z,305
2022-09-25T17:27:47.189Z,297
2022-09-25T17:29:58.436Z,293
2022-09-25T17:32:04.957Z,301
2022-09-25T17:34:12.968Z,301
2022-09-25T17:36:21.504Z,291
2022-09-25T17:38:28.465Z,290
2022-09-25T17:40:36.900Z,291
2022-09-25T17:42:46.572Z,290
2022-09-25T17:44:58.075Z,289
2022-09-25T17:47:07.237Z,290
2022-09-25T17:49:14.830Z,301
2022-09-25T17:51:24.631Z,301
2022-09-25T17:53:31.502Z,291
2022-09-25T17:55:38.556Z,293
2022-09-25T17:57:48.347Z,290
2022-09-25T17:59:57.300Z,293
2022-09-25T18:02:05.139Z,290
2022-09-25T18:04:12.868Z,290
2022-09-25T18:06:21.409Z,291
2022-09-25T18:08:27.999Z,300
2022-09-25T18:10:35.105Z,300
2022-09-25T18:12:44.446Z,297
2022-09-25T18:14:58.764Z,303
2022-09-25T18:17:10.057Z,308
2022-09-25T18:19:19.030Z,300
2022-09-25T18:21:31.124Z,289
2022-09-25T18:23:39.514Z,300
2022-09-25T18:25:56.413Z,290
2022-09-25T18:28:04.732Z,297
2022-09-25T18:30:19.168Z,289
2022-09-25T18:32:27.352Z,291
2022-09-25T18:34:38.615Z,290
2022-09-25T18:36:47.607Z,290
2022-09-25T18:39:04.880Z,291
2022-09-25T18:41:14.877Z,291
2022-09-25T18:43:22.108Z,291
2022-09-25T18:45:29.875Z,292
2022-09-25T18:47:38.740Z,291
2022-09-25T18:49:46.272Z,291
2022-09-25T18:51:54.937Z,292
2022-09-25T18:54:11.394Z,292
2022-09-25T18:56:22.470Z,293
2022-09-25T18:58:34.770Z,293
2022-09-25T19:00:41.815Z,293
2022-09-25T19:02:49.740Z,293
2022-09-25T19:04:56.535Z,293
2022-09-25T19:07:07.941Z,291
2022-09-25T19:09:20.600Z,306
2022-09-25T19:11:29.890Z,309
2022-09-25T19:13:38.368Z,303
2022-09-25T19:15:46.482Z,302
2022-09-25T19:18:05.558Z,302
2022-09-25T19:20:14.404Z,304
2022-09-25T19:22:22.566Z,303
2022-09-25T19:24:32.357Z,308
2022-09-25T19:26:41.349Z,308
2022-09-25T19:28:52.860Z,309
2022-09-25T19:31:03.758Z,308
2022-09-25T19:33:13.976Z,309
2022-09-25T19:35:25.828Z,309
2022-09-25T19:37:36.096Z,309
2022-09-25T19:39:49.136Z,309
2022-09-25T19:42:01.781Z,309
2022-09-25T19:44:16.624Z,308
2022-09-25T19:46:23.635Z,308
2022-09-25T19:48:31.350Z,308
2022-09-25T19:50:40.478Z,284
2022-09-25T19:52:54.089Z,288
2022-09-25T19:55:01.032Z,288
2022-09-25T19:57:13.135Z,300
2022-09-25T19:59:19.708Z,301
2022-09-25T20:01:26.504Z,288
2022-09-25T20:03:34.196Z,290
2022-09-25T20:05:43.498Z,310
2022-09-25T20:07:55.681Z,289
2022-09-25T20:10:06.352Z,309
2022-09-25T20:12:15.723Z,310
2022-09-25T20:14:25.211Z,310
2022-09-25T20:16:32.559Z,309
2022-09-25T20:18:40.869Z,309
2022-09-25T20:20:47.747Z,286
2022-09-25T20:22:58.030Z,309
2022-09-25T20:25:08.721Z,309
2022-09-25T20:27:22.445Z,310
2022-09-25T20:29:35.040Z,309
2022-09-25T20:31:45.340Z,309
2022-09-25T20:33:51.508Z,309
2022-09-25T20:35:57.562Z,309
2022-09-25T20:38:06.479Z,309
2022-09-25T20:40:15.949Z,306
2022-09-25T20:42:26.479Z,309
2022-09-25T20:44:32.899Z,301
2022-09-25T20:46:40.949Z,297
2022-09-25T20:48:49.395Z,303
2022-09-25T20:50:55.277Z,303
2022-09-25T20:53:00.782Z,281
2022-09-25T20:55:09.749Z,291
2022-09-25T20:57:16.238Z,289
2022-09-25T20:59:22.092Z,291
2022-09-25T21:01:28.250Z,290
2022-09-25T21:03:34.289Z,291
2022-09-25T21:05:45.909Z,291
2022-09-25T21:07:56.134Z,291
2022-09-25T21:10:01.832Z,288
2022-09-25T21:12:12.288Z,289
2022-09-25T21:14:18.149Z,292
2022-09-25T21:16:24.345Z,291
2022-09-25T21:18:32.398Z,291
2022-09-25T21:20:44.498Z,292
2022-09-25T21:22:53.627Z,292
2022-09-25T21:24:59.714Z,310
2022-09-25T21:27:08.631Z,310
2022-09-25T21:29:16.798Z,310
2022-09-25T21:31:22.716Z,310
2022-09-25T21:33:28.137Z,310
2022-09-25T21:35:33.703Z,310
2022-09-25T21:37:39.430Z,310
2022-09-25T21:39:48.291Z,310
2022-09-25T21:41:59.689Z,309
2022-09-25T21:44:05.179Z,310
2022-09-25T21:46:11.017Z,309
2022-09-25T21:48:16.591Z,310
2022-09-25T21:50:25.082Z,309
2022-09-25T21:52:30.822Z,308
2022-09-25T21:54:36.483Z,310
2022-09-25T21:56:42.348Z,307
2022-09-25T21:58:50.108Z,302
2022-09-25T22:00:59.339Z,307
2022-09-25T22:03:11.095Z,306
2022-09-25T22:05:20.732Z,306
2022-09-25T22:07:39.794Z,305
2022-09-25T22:09:45.403Z,306
2022-09-25T22:11:56.911Z,301
2022-09-25T22:14:04.518Z,308
2022-09-25T22:16:20.458Z,308
2022-09-25T22:18:27.840Z,310
2022-09-25T22:20:33.653Z,308
2022-09-25T22:22:39.187Z,312
2022-09-25T22:24:48.109Z,312
2022-09-25T22:26:53.552Z,308
2022-09-25T22:29:01.020Z,313
2022-09-25T22:31:07.018Z,310
2022-09-25T22:33:18.668Z,310
2022-09-25T22:35:27.417Z,308
2022-09-25T22:37:33.265Z,309
2022-09-25T22:39:38.669Z,312
2022-09-25T22:41:43.728Z,307
2022-09-25T22:43:51.935Z,301
2022-09-25T22:45:57.863Z,302
2022-09-25T22:48:05.776Z,281
2022-09-25T22:50:13.446Z,302
2022-09-25T22:52:27.311Z,306
2022-09-25T22:54:32.547Z,302
2022-09-25T22:56:40.604Z,303
2022-09-25T22:58:46.163Z,298
2022-09-25T23:00:51.968Z,297
2022-09-25T23:02:57.477Z,298
2022-09-25T23:05:09.555Z,300
2022-09-25T23:07:15.604Z,303
2022-09-25T23:09:23.133Z,300
2022-09-25T23:11:33.889Z,306
2022-09-25T23:13:41.007Z,303
2022-09-25T23:15:46.335Z,307
2022-09-25T23:17:52.287Z,302
2022-09-25T23:20:00.587Z,301
2022-09-25T23:22:05.927Z,301
2022-09-25T23:24:28.215Z,301
2022-09-25T23:26:36.114Z,301
2022-09-25T23:28:41.423Z,301
2022-09-25T23:30:47.250Z,302
2022-09-25T23:32:53.229Z,301
2022-09-25T23:35:02.395Z,301
2022-09-25T23:37:10.657Z,301
2022-09-25T23:39:16.393Z,301
2022-09-25T23:41:22.178Z,301
2022-09-25T23:43:29.580Z,301
2022-09-25T23:45:35.324Z,302
2022-09-25T23:47:41.031Z,307
2022-09-25T23:49:46.573Z,308
2022-09-25T23:51:52.101Z,308
2022-09-25T23:53:57.633Z,307
2022-09-25T23:56:03.437Z,307
2022-09-25T23:58:09.149Z,307
